createdAt,value
2023-01-27T00:00:28.554Z,2.30
2023-01-27T00:02:55.109Z,2.25
2023-01-27T00:05:22.162Z,2.63
2023-01-27T00:07:49.694Z,2.10
2023-01-27T00:10:19.077Z,1.67
2023-01-27T00:13:05.394Z,2.58
2023-01-27T00:15:33.443Z,2.20
2023-01-27T00:18:00.189Z,2.08
2023-01-27T00:20:45.584Z,2.55
2023-01-27T00:23:39.527Z,2.65
2023-01-27T00:26:08.820Z,2.42
2023-01-27T00:28:40.153Z,2.58
2023-01-27T00:31:27.880Z,2.33
2023-01-27T00:33:56.130Z,2.95
2023-01-27T00:36:23.047Z,2.28
2023-01-27T00:38:49.508Z,3.15
2023-01-27T00:41:19.338Z,3.03
2023-01-27T00:43:53.577Z,3.00
2023-01-27T00:46:22.141Z,2.75
2023-01-27T00:48:49.069Z,2.75
2023-01-27T00:51:15.914Z,2.97
2023-01-27T00:53:42.420Z,3.20
2023-01-27T00:56:09.822Z,3.47
2023-01-27T00:58:36.982Z,3.08
2023-01-27T01:01:05.962Z,3.30
2023-01-27T01:03:33.748Z,3.40
2023-01-27T01:06:07.528Z,3.30
2023-01-27T01:08:35.403Z,3.38
2023-01-27T01:11:03.898Z,3.22
2023-01-27T01:13:30.319Z,3.60
2023-01-27T01:15:57.366Z,3.72
2023-01-27T01:18:24.527Z,3.90
2023-01-27T01:20:50.985Z,3.30
2023-01-27T01:23:17.453Z,3.90
2023-01-27T01:25:52.739Z,3.92
2023-01-27T01:28:19.220Z,4.18
2023-01-27T01:30:45.936Z,4.85
2023-01-27T01:33:12.436Z,4.18
2023-01-27T01:35:39.469Z,3.75
2023-01-27T01:38:06.265Z,4.55
2023-01-27T01:40:33.153Z,4.28
2023-01-27T01:43:01.762Z,4.50
2023-01-27T01:45:35.672Z,4.57
2023-01-27T01:48:30.051Z,5.07
2023-01-27T01:51:08.305Z,4.68
2023-01-27T01:53:41.622Z,5.32
2023-01-27T01:56:13.736Z,6.15
2023-01-27T02:01:10.751Z,7.63
2023-01-27T02:03:41.598Z,7.32
2023-01-27T02:06:10.530Z,8.30
2023-01-27T02:08:43.765Z,8.40
2023-01-27T02:11:10.995Z,8.23
2023-01-27T02:13:39.183Z,8.23
2023-01-27T02:16:08.619Z,8.63
2023-01-27T02:18:35.217Z,8.45
2023-01-27T02:21:02.754Z,8.77
2023-01-27T02:23:44.395Z,9.77
2023-01-27T02:26:17.899Z,10.45
2023-01-27T02:28:44.879Z,9.93
2023-01-27T02:31:11.649Z,9.85
2023-01-27T02:33:38.549Z,10.73
2023-01-27T02:36:16.770Z,10.60
2023-01-27T02:38:47.237Z,10.13
2023-01-27T02:41:34.888Z,10.68
2023-01-27T02:44:01.825Z,9.82
2023-01-27T02:46:28.614Z,10.88
2023-01-27T02:48:58.076Z,10.07
2023-01-27T02:51:25.065Z,11.20
2023-01-27T02:53:51.662Z,11.45
2023-01-27T02:56:19.661Z,11.30
2023-01-27T02:58:46.668Z,11.55
2023-01-27T03:01:16.709Z,12.52
2023-01-27T03:03:47.476Z,13.18
2023-01-27T03:06:19.268Z,11.82
2023-01-27T03:08:45.802Z,8.40
2023-01-27T03:11:14.420Z,7.25
2023-01-27T03:13:40.837Z,7.80
2023-01-27T03:16:25.997Z,8.98
2023-01-27T03:18:56.374Z,7.90
2023-01-27T03:21:23.037Z,8.40
2023-01-27T03:23:49.560Z,8.18
2023-01-27T03:26:20.644Z,8.45
2023-01-27T03:29:11.915Z,7.95
2023-01-27T03:31:41.406Z,8.30
2023-01-27T03:34:09.460Z,8.25
2023-01-27T03:37:00.113Z,7.15
2023-01-27T03:39:45.550Z,8.05
2023-01-27T03:42:30.784Z,7.40
2023-01-27T03:45:16.481Z,7.82
2023-01-27T03:47:42.887Z,7.50
2023-01-27T03:50:11.132Z,8.88
2023-01-27T03:52:38.068Z,8.60
2023-01-27T03:55:04.833Z,8.57
2023-01-27T03:57:31.217Z,9.02
2023-01-27T03:59:59.270Z,9.02
2023-01-27T04:02:44.325Z,8.80
2023-01-27T04:05:29.520Z,9.68
2023-01-27T04:07:55.944Z,10.02
2023-01-27T04:10:22.350Z,10.20
2023-01-27T04:12:49.144Z,10.05
2023-01-27T04:15:17.276Z,10.80
2023-01-27T04:17:45.987Z,10.27
2023-01-27T04:20:12.878Z,10.82
2023-01-27T04:22:39.707Z,11.30
2023-01-27T04:25:06.868Z,10.93
2023-01-27T04:27:33.439Z,11.77
2023-01-27T04:30:00.360Z,11.65
2023-01-27T04:32:27.389Z,11.85
2023-01-27T04:34:54.152Z,12.35
2023-01-27T04:37:20.701Z,11.50
2023-01-27T04:39:47.372Z,11.73
2023-01-27T04:42:13.898Z,12.25
2023-01-27T04:44:40.353Z,11.73
2023-01-27T04:47:06.736Z,11.57
2023-01-27T04:49:33.110Z,12.10
2023-01-27T04:51:59.550Z,11.55
2023-01-27T04:54:26.022Z,11.77
2023-01-27T04:56:59.006Z,10.95
2023-01-27T04:59:25.635Z,11.98
2023-01-27T05:01:52.372Z,11.30
2023-01-27T05:04:18.832Z,12.00
2023-01-27T05:06:45.723Z,11.25
2023-01-27T05:09:12.066Z,11.07
2023-01-27T05:11:38.654Z,11.35
2023-01-27T05:14:05.095Z,11.30
2023-01-27T05:16:31.487Z,11.10
2023-01-27T05:18:57.954Z,12.10
2023-01-27T05:21:30.827Z,11.00
2023-01-27T05:23:57.400Z,11.43
2023-01-27T05:26:26.352Z,11.73
2023-01-27T05:28:54.492Z,12.07
2023-01-27T05:31:23.871Z,11.00
2023-01-27T05:33:52.910Z,12.75
2023-01-27T05:36:21.023Z,11.95
2023-01-27T05:38:47.951Z,11.10
2023-01-27T05:41:16.898Z,12.18
2023-01-27T05:43:44.848Z,12.07
2023-01-27T05:46:16.779Z,11.73
2023-01-27T05:48:45.882Z,12.55
2023-01-27T05:51:15.138Z,11.48
2023-01-27T05:53:43.131Z,10.93
2023-01-27T05:56:11.104Z,10.73
2023-01-27T05:58:39.071Z,10.30
2023-01-27T06:01:09.661Z,10.70
2023-01-27T06:03:36.593Z,10.55
2023-01-27T06:06:04.019Z,9.57
2023-01-27T06:08:30.885Z,10.20
2023-01-27T06:10:58.499Z,9.98
2023-01-27T06:13:25.430Z,10.05
2023-01-27T06:15:53.262Z,9.93
2023-01-27T06:18:19.735Z,9.80
2023-01-27T06:20:46.621Z,9.80
2023-01-27T06:23:15.732Z,10.48
2023-01-27T06:25:45.374Z,9.35
2023-01-27T06:28:19.950Z,10.10
2023-01-27T06:30:53.701Z,9.30
2023-01-27T06:33:20.098Z,9.90
2023-01-27T06:35:47.189Z,9.75
2023-01-27T06:38:15.342Z,9.75
2023-01-27T06:40:42.655Z,10.52
2023-01-27T06:43:14.280Z,9.93
2023-01-27T06:45:41.240Z,9.43
2023-01-27T06:48:08.681Z,9.35
2023-01-27T06:50:36.168Z,8.88
2023-01-27T06:53:04.957Z,9.20
2023-01-27T06:55:32.454Z,8.88
2023-01-27T06:57:59.157Z,8.80
2023-01-27T07:00:25.933Z,8.95
2023-01-27T07:02:55.706Z,9.60
2023-01-27T07:05:22.461Z,9.95
2023-01-27T07:07:48.899Z,8.85
2023-01-27T07:10:15.946Z,9.57
2023-01-27T07:12:42.623Z,9.32
2023-01-27T07:15:10.493Z,9.75
2023-01-27T07:17:37.369Z,9.50
2023-01-27T07:20:06.287Z,9.20
2023-01-27T07:22:32.827Z,9.45
2023-01-27T07:24:59.403Z,10.20
2023-01-27T07:27:26.218Z,10.13
2023-01-27T07:29:52.703Z,10.25
2023-01-27T07:32:19.212Z,10.05
2023-01-27T07:34:45.609Z,9.98
2023-01-27T07:37:13.436Z,10.02
2023-01-27T07:39:39.829Z,9.55
2023-01-27T07:42:06.730Z,9.43
2023-01-27T07:44:33.364Z,10.48
2023-01-27T07:46:59.910Z,10.52
2023-01-27T07:49:27.526Z,10.15
2023-01-27T07:51:54.276Z,9.27
2023-01-27T07:54:20.876Z,10.38
2023-01-27T07:56:47.265Z,9.40
2023-01-27T07:59:13.797Z,9.52
2023-01-27T08:01:41.770Z,9.55
2023-01-27T08:04:08.288Z,10.20
2023-01-27T08:06:34.919Z,9.88
2023-01-27T08:09:01.423Z,9.90
2023-01-27T08:11:27.851Z,9.98
2023-01-27T08:13:54.196Z,9.98
2023-01-27T08:16:20.638Z,9.65
2023-01-27T08:18:47.056Z,9.07
2023-01-27T08:21:13.462Z,9.77
2023-01-27T08:23:40.327Z,9.77
2023-01-27T08:26:07.547Z,8.77
2023-01-27T08:28:36.416Z,9.52
2023-01-27T08:31:15.241Z,9.30
2023-01-27T08:33:43.563Z,8.32
2023-01-27T08:36:14.083Z,9.43
2023-01-27T08:38:41.111Z,8.85
2023-01-27T08:41:10.830Z,8.48
2023-01-27T08:43:37.295Z,9.45
2023-01-27T08:46:04.804Z,9.65
2023-01-27T08:48:32.063Z,8.10
2023-01-27T08:50:59.903Z,8.52
2023-01-27T08:53:27.346Z,8.73
2023-01-27T08:55:56.791Z,8.10
2023-01-27T08:58:24.111Z,8.52
2023-01-27T09:00:50.527Z,8.10
2023-01-27T09:03:17.388Z,7.95
2023-01-27T09:05:43.823Z,7.78
2023-01-27T09:08:10.781Z,8.20
2023-01-27T09:10:39.188Z,7.18
2023-01-27T09:13:06.370Z,7.47
2023-01-27T09:15:33.914Z,8.13
2023-01-27T09:18:00.289Z,7.65
2023-01-27T09:20:26.649Z,7.65
2023-01-27T09:22:55.014Z,7.57
2023-01-27T09:25:21.636Z,7.35
2023-01-27T09:27:48.064Z,7.15
2023-01-27T09:30:16.499Z,7.05
2023-01-27T09:32:43.069Z,7.63
2023-01-27T09:35:09.874Z,7.72
2023-01-27T09:37:42.331Z,7.13
2023-01-27T09:40:32.847Z,7.07
2023-01-27T09:43:07.975Z,6.80
2023-01-27T09:45:51.582Z,6.25
2023-01-27T09:48:40.411Z,6.85
2023-01-27T09:51:21.598Z,6.43
2023-01-27T09:54:02.295Z,6.45
2023-01-27T09:57:09.163Z,6.65
2023-01-27T09:59:58.090Z,6.57
2023-01-27T10:02:48.495Z,6.80
2023-01-27T10:05:44.751Z,7.00
2023-01-27T10:08:43.476Z,6.95
2023-01-27T10:11:19.682Z,7.40
2023-01-27T10:13:59.625Z,9.07
2023-01-27T10:16:48.851Z,6.53
2023-01-27T10:19:34.851Z,6.70
2023-01-27T10:22:19.912Z,6.18
2023-01-27T10:25:00.296Z,6.90
2023-01-27T10:27:35.674Z,6.97
2023-01-27T10:30:17.237Z,6.57
2023-01-27T10:33:20.322Z,6.25
2023-01-27T10:36:03.028Z,5.60
2023-01-27T10:38:45.910Z,6.50
2023-01-27T10:41:39.765Z,6.47
2023-01-27T10:44:29.297Z,6.07
2023-01-27T10:47:11.628Z,6.22
2023-01-27T10:49:53.619Z,6.25
2023-01-27T10:52:26.511Z,5.90
2023-01-27T10:55:25.619Z,6.47
2023-01-27T10:58:04.555Z,6.38
2023-01-27T11:01:13.262Z,6.65
2023-01-27T11:03:38.083Z,6.22
2023-01-27T11:06:11.133Z,6.88
2023-01-27T11:08:42.829Z,6.28
2023-01-27T11:11:28.848Z,6.70
2023-01-27T11:14:22.639Z,6.70
2023-01-27T11:16:52.756Z,7.05
2023-01-27T11:19:29.206Z,7.45
2023-01-27T11:22:07.121Z,7.25
2023-01-27T11:24:45.597Z,8.30
2023-01-27T11:27:35.107Z,8.07
2023-01-27T11:30:16.954Z,8.48
2023-01-27T11:32:58.774Z,10.50
2023-01-27T11:35:25.301Z,9.95
2023-01-27T11:37:54.828Z,10.73
2023-01-27T11:40:35.662Z,9.73
2023-01-27T11:43:03.264Z,9.00
2023-01-27T11:45:35.775Z,8.90
2023-01-27T11:48:07.675Z,9.27
2023-01-27T11:50:36.120Z,9.27
2023-01-27T11:53:24.298Z,10.73
2023-01-27T11:56:01.980Z,8.52
2023-01-27T11:58:40.883Z,7.07
2023-01-27T12:01:16.182Z,8.35
2023-01-27T12:03:52.649Z,6.00
2023-01-27T12:06:32.722Z,6.45
2023-01-27T12:08:59.171Z,6.05
2023-01-27T12:11:26.959Z,5.78
2023-01-27T12:13:56.485Z,6.10
2023-01-27T12:16:50.714Z,5.97
2023-01-27T12:19:32.137Z,5.30
2023-01-27T12:22:02.761Z,4.90
2023-01-27T12:24:40.136Z,4.75
2023-01-27T12:27:07.531Z,5.50
2023-01-27T12:29:43.627Z,4.97
2023-01-27T12:32:32.866Z,5.85
2023-01-27T12:35:01.839Z,4.68
2023-01-27T12:37:36.560Z,5.50
2023-01-27T12:40:06.149Z,4.53
2023-01-27T12:42:43.437Z,4.90
2023-01-27T12:45:26.765Z,4.35
2023-01-27T12:48:16.885Z,4.70
2023-01-27T12:50:55.118Z,4.43
2023-01-27T12:53:27.657Z,5.05
2023-01-27T12:56:16.640Z,4.65
2023-01-27T12:58:45.981Z,4.65
2023-01-27T13:01:43.984Z,4.10
2023-01-27T13:04:22.021Z,4.22
2023-01-27T13:06:56.318Z,4.05
2023-01-27T13:09:26.231Z,4.25
2023-01-27T13:11:54.955Z,4.20
2023-01-27T13:14:21.818Z,3.95
2023-01-27T13:16:56.358Z,4.15
2023-01-27T13:19:35.881Z,3.75
2023-01-27T13:22:03.933Z,3.70
2023-01-27T13:24:41.341Z,3.35
2023-01-27T13:27:15.728Z,3.30
2023-01-27T13:29:48.099Z,3.60
2023-01-27T13:32:23.293Z,3.72
2023-01-27T13:35:05.349Z,3.80
2023-01-27T13:37:37.244Z,3.40
2023-01-27T13:40:18.780Z,3.13
2023-01-27T13:42:57.715Z,3.47
2023-01-27T13:45:44.242Z,3.40
2023-01-27T13:48:13.716Z,3.13
2023-01-27T13:50:44.804Z,3.47
2023-01-27T13:53:14.858Z,4.20
2023-01-27T13:56:20.584Z,3.58
2023-01-27T13:59:05.244Z,2.80
2023-01-27T14:02:11.189Z,3.00
2023-01-27T14:04:56.853Z,3.30
2023-01-27T14:07:42.121Z,3.50
2023-01-27T14:10:27.521Z,3.47
2023-01-27T14:13:43.986Z,3.55
2023-01-27T14:16:24.497Z,3.33
2023-01-27T14:19:07.867Z,3.00
2023-01-27T14:21:52.031Z,3.50
2023-01-27T14:24:49.345Z,3.30
2023-01-27T14:27:30.042Z,3.60
2023-01-27T14:30:02.472Z,2.70
2023-01-27T14:32:46.340Z,2.92
2023-01-27T14:35:35.656Z,2.92
2023-01-27T14:38:38.212Z,3.28
2023-01-27T14:41:14.077Z,2.80
2023-01-27T14:43:59.401Z,3.20
2023-01-27T14:46:39.824Z,7.55
2023-01-27T14:49:30.976Z,12.50
2023-01-27T14:52:13.914Z,4.35
2023-01-27T14:54:53.515Z,4.38
2023-01-27T14:57:27.346Z,3.80
2023-01-27T15:00:08.742Z,2.92
2023-01-27T15:02:48.247Z,2.72
2023-01-27T15:05:26.250Z,2.30
2023-01-27T15:08:18.035Z,2.33
2023-01-27T15:11:11.560Z,1.90
2023-01-27T15:13:47.214Z,1.65
2023-01-27T15:16:23.113Z,1.95
2023-01-27T15:18:52.587Z,1.75
2023-01-27T15:21:34.567Z,2.00
2023-01-27T15:24:31.245Z,3.78
2023-01-27T15:26:58.603Z,2.10
2023-01-27T15:29:30.710Z,2.85
2023-01-27T15:32:27.884Z,2.20
2023-01-27T15:35:30.098Z,2.10
2023-01-27T15:38:05.197Z,2.40
2023-01-27T15:41:04.637Z,2.35
2023-01-27T15:43:32.075Z,3.00
2023-01-27T15:46:19.745Z,2.70
2023-01-27T15:48:47.623Z,2.20
2023-01-27T15:51:19.824Z,2.20
2023-01-27T15:53:52.409Z,2.38
2023-01-27T15:56:18.863Z,2.00
2023-01-27T15:58:53.490Z,2.35
2023-01-27T16:01:26.535Z,2.70
2023-01-27T16:04:05.882Z,3.03
2023-01-27T16:06:33.769Z,3.15
2023-01-27T16:09:07.659Z,2.95
2023-01-27T16:11:33.978Z,4.22
2023-01-27T16:14:12.413Z,3.20
2023-01-27T16:16:40.750Z,3.70
2023-01-27T16:19:11.145Z,4.00
2023-01-27T16:21:47.719Z,2.88
2023-01-27T16:24:35.966Z,2.83
2023-01-27T16:27:24.915Z,2.35
2023-01-27T16:29:58.541Z,5.32
2023-01-27T16:32:35.427Z,4.50
2023-01-27T16:35:14.195Z,3.63
2023-01-27T16:37:57.442Z,4.32
2023-01-27T16:40:24.809Z,2.55
2023-01-27T16:42:57.692Z,2.75
2023-01-27T16:45:33.406Z,2.90
2023-01-27T16:48:06.494Z,1.95
2023-01-27T16:50:41.450Z,2.17
2023-01-27T16:53:24.084Z,1.98
2023-01-27T16:56:00.409Z,2.00
2023-01-27T16:58:39.774Z,2.20
2023-01-27T17:01:21.784Z,2.08
2023-01-27T17:03:49.401Z,2.53
2023-01-27T17:06:17.387Z,2.53
2023-01-27T17:08:45.563Z,2.92
2023-01-27T17:11:20.851Z,2.58
2023-01-27T17:13:50.094Z,2.50
2023-01-27T17:16:34.274Z,3.38
2023-01-27T17:19:21.460Z,5.50
2023-01-27T17:21:55.517Z,4.18
2023-01-27T17:24:52.860Z,3.45
2023-01-27T17:27:37.821Z,2.40
2023-01-27T17:30:17.331Z,2.40
2023-01-27T17:32:49.289Z,2.67
2023-01-27T17:35:25.408Z,2.55
2023-01-27T17:37:51.968Z,2.33
2023-01-27T17:40:21.389Z,2.40
2023-01-27T17:42:49.175Z,2.17
2023-01-27T17:45:21.869Z,2.40
2023-01-27T17:47:48.961Z,2.85
2023-01-27T17:50:18.435Z,2.55
2023-01-27T17:52:52.325Z,2.20
2023-01-27T17:55:24.330Z,2.95
2023-01-27T17:58:04.332Z,2.78
2023-01-27T18:00:35.216Z,2.63
2023-01-27T18:03:23.941Z,2.63
2023-01-27T18:05:53.379Z,2.78
2023-01-27T18:08:22.070Z,2.60
2023-01-27T18:10:48.479Z,2.80
2023-01-27T18:13:17.904Z,2.63
2023-01-27T18:15:57.476Z,3.00
2023-01-27T18:18:27.981Z,2.80
2023-01-27T18:20:57.245Z,2.85
2023-01-27T18:23:28.571Z,2.63
2023-01-27T18:26:17.499Z,2.05
2023-01-27T18:28:45.781Z,2.50
2023-01-27T18:31:16.859Z,3.28
2023-01-27T18:33:44.035Z,2.80
2023-01-27T18:36:22.830Z,2.95
2023-01-27T18:38:50.924Z,3.13
2023-01-27T18:41:27.621Z,3.10
2023-01-27T18:43:54.259Z,3.33
2023-01-27T18:46:20.747Z,3.70
2023-01-27T18:48:47.282Z,3.53
2023-01-27T18:51:15.109Z,3.38
2023-01-27T18:53:41.833Z,3.05
2023-01-27T18:56:08.973Z,3.47
2023-01-27T18:58:36.219Z,3.40
2023-01-27T19:01:05.471Z,3.30
2023-01-27T19:03:34.535Z,3.45
2023-01-27T19:06:00.969Z,3.53
2023-01-27T19:08:27.411Z,3.08
2023-01-27T19:10:53.909Z,3.05
2023-01-27T19:13:20.406Z,3.10
2023-01-27T19:15:52.727Z,3.10
2023-01-27T19:18:28.784Z,3.28
2023-01-27T19:20:55.465Z,2.55
2023-01-27T19:23:22.135Z,2.47
2023-01-27T19:25:53.908Z,2.42
2023-01-27T19:28:38.296Z,2.53
2023-01-27T19:31:06.634Z,2.45
2023-01-27T19:33:34.604Z,2.08
2023-01-27T19:36:25.338Z,2.42
2023-01-27T19:39:20.435Z,2.80
2023-01-27T19:41:47.061Z,2.15
2023-01-27T19:44:15.185Z,2.30
2023-01-27T19:46:42.741Z,2.70
2023-01-27T19:49:19.664Z,2.80
2023-01-27T19:51:46.227Z,2.47
2023-01-27T19:54:12.613Z,2.70
2023-01-27T19:56:39.394Z,2.42
2023-01-27T19:59:05.909Z,2.22
2023-01-27T20:01:32.479Z,2.53
2023-01-27T20:03:58.975Z,3.00
2023-01-27T20:06:28.489Z,3.63
2023-01-27T20:08:59.762Z,3.42
2023-01-27T20:11:29.402Z,4.32
2023-01-27T20:13:55.914Z,3.05
2023-01-27T20:16:23.015Z,2.75
2023-01-27T20:18:50.679Z,2.60
2023-01-27T20:21:17.041Z,3.13
2023-01-27T20:23:43.462Z,3.97
2023-01-27T20:26:15.544Z,3.85
2023-01-27T20:28:42.527Z,4.13
2023-01-27T20:31:13.818Z,4.15
2023-01-27T20:33:40.497Z,6.00
2023-01-27T20:36:08.495Z,4.97
2023-01-27T20:38:35.341Z,4.90
2023-01-27T20:41:06.993Z,5.50
2023-01-27T20:43:35.522Z,4.43
2023-01-27T20:46:06.838Z,5.28
2023-01-27T20:48:33.580Z,5.60
2023-01-27T20:51:01.631Z,5.55
2023-01-27T20:53:31.559Z,5.13
2023-01-27T20:55:59.199Z,5.07
2023-01-27T20:58:29.557Z,5.10
2023-01-27T21:01:08.055Z,5.53
2023-01-27T21:03:35.622Z,5.38
2023-01-27T21:06:02.333Z,5.95
2023-01-27T21:08:28.867Z,5.60
2023-01-27T21:10:55.300Z,5.60
2023-01-27T21:13:21.774Z,5.68
2023-01-27T21:15:49.523Z,5.20
2023-01-27T21:18:17.222Z,5.53
2023-01-27T21:20:48.572Z,5.20
2023-01-27T21:23:15.389Z,4.90
2023-01-27T21:25:41.979Z,5.15
2023-01-27T21:28:08.466Z,5.07
2023-01-27T21:30:34.973Z,4.95
2023-01-27T21:33:01.395Z,5.35
2023-01-27T21:35:28.269Z,5.65
2023-01-27T21:37:54.652Z,5.47
2023-01-27T21:40:21.040Z,5.25
2023-01-27T21:43:05.966Z,5.53
2023-01-27T21:45:32.353Z,5.75
2023-01-27T21:47:58.760Z,6.05
2023-01-27T21:50:25.228Z,6.00
2023-01-27T21:52:51.742Z,6.15
2023-01-27T21:55:23.426Z,6.18
2023-01-27T21:57:51.883Z,6.25
2023-01-27T22:00:27.426Z,6.20
2023-01-27T22:02:56.106Z,6.13
2023-01-27T22:05:23.444Z,5.90
2023-01-27T22:07:51.623Z,6.90
2023-01-27T22:10:23.409Z,6.32
2023-01-27T22:12:51.116Z,5.90
2023-01-27T22:15:19.715Z,5.97
2023-01-27T22:17:46.533Z,6.28
2023-01-27T22:20:15.627Z,6.38
2023-01-27T22:22:45.566Z,6.03
2023-01-27T22:25:14.722Z,6.63
2023-01-27T22:27:42.635Z,6.85
2023-01-27T22:30:16.400Z,5.90
2023-01-27T22:32:43.706Z,6.72
2023-01-27T22:35:12.824Z,6.60
2023-01-27T22:37:39.878Z,6.38
2023-01-27T22:40:07.714Z,6.57
2023-01-27T22:42:34.993Z,6.80
2023-01-27T22:45:02.363Z,6.80
2023-01-27T22:47:28.724Z,6.35
2023-01-27T22:49:55.124Z,6.00
2023-01-27T22:52:21.480Z,5.95
2023-01-27T22:54:48.056Z,5.60
2023-01-27T22:57:14.425Z,5.85
2023-01-27T22:59:40.802Z,6.85
2023-01-27T23:02:07.321Z,6.07
2023-01-27T23:04:33.956Z,6.40
2023-01-27T23:07:00.931Z,6.47
2023-01-27T23:09:27.331Z,6.32
2023-01-27T23:11:53.721Z,6.50
2023-01-27T23:14:20.429Z,7.13
2023-01-27T23:16:46.955Z,6.85
2023-01-27T23:19:13.412Z,7.47
2023-01-27T23:21:39.785Z,7.30
2023-01-27T23:24:07.753Z,7.22
2023-01-27T23:26:34.444Z,7.05
2023-01-27T23:29:00.861Z,6.93
2023-01-27T23:31:27.351Z,6.68
2023-01-27T23:33:54.001Z,6.40
2023-01-27T23:36:20.415Z,7.03
2023-01-27T23:38:47.416Z,6.97
2023-01-27T23:41:18.138Z,8.05
2023-01-27T23:43:49.942Z,7.88
2023-01-27T23:46:16.363Z,7.95
2023-01-27T23:48:42.733Z,7.57
2023-01-27T23:51:10.543Z,8.80
2023-01-27T23:53:36.980Z,7.57
2023-01-27T23:56:04.407Z,7.38
2023-01-27T23:58:30.835Z,7.10
